Stations météo

Publicité
Dunstaffnage, Grande-Bretagne (99006): Température de l'air & dewpoint: 20.06.2019 19:00:00 - 26.06.2019 19:00:00 (BST)Dunstaffnage, Grande-Bretagne (99006): Température de l'air -20cm: 20.06.2019 19:00:00 - 26.06.2019 19:00:00 (BST)Dunstaffnage, Grande-Bretagne (99006): Vitesse du vent: 20.06.2019 19:00:00 - 26.06.2019 19:00:00 (BST)Dunstaffnage, Grande-Bretagne (99006): Direction du vent: 20.06.2019 19:00:00 - 26.06.2019 19:00:00 (BST)Dunstaffnage, Grande-Bretagne (99006): Quantités de précipitations: 20.06.2019 19:00:00 - 26.06.2019 19:00:00 (BST)
Date & Time tt [°C] td [°C] tt -20cm [°C] ff [km/h] ff [knt] dd rr [mm]
26.06.2019 19:00:00 18,1 11,5 - 26 14 W 0,0
26.06.2019 18:00:00 18,7 11,1 - 21 11 W 0,0
26.06.2019 17:00:00 19,4 11,9 - 22 12 WSW 0,0
26.06.2019 16:00:00 19,4 11,5 - 16 9 W 0,0
26.06.2019 15:00:00 19,6 11,8 - 18 10 W 0,0
26.06.2019 14:00:00 18,9 12,5 - 16 9 W 0,0
26.06.2019 13:00:00 17,0 10,3 - 15 8 W 0,0
26.06.2019 12:00:00 18,1 11,6 - 15 8 W 0,0
26.06.2019 11:00:00 15,6 6,5 - 9 5 NW 0,0
26.06.2019 10:00:00 14,9 7,2 15,4 9 5 NW 0,0
26.06.2019 09:00:00 14,3 7,9 - 5 3 NE 0,0
26.06.2019 08:00:00 13,2 8,4 - 2 1 NE 0,0
26.06.2019 07:00:00 11,7 8,5 - 5 3 N 0,0
26.06.2019 06:00:00 9,5 8,2 - 2 1 W 0,0
26.06.2019 05:00:00 9,6 7,9 - 2 1 N 0,0
26.06.2019 04:00:00 11,2 8,0 - 5 3 N 0,0
26.06.2019 03:00:00 12,2 8,5 - 5 3 NNE 0,0
26.06.2019 02:00:00 12,3 8,6 - 5 3 N 0,0
26.06.2019 01:00:00 13,7 8,7 - 8 4 NNE 0,0
26.06.2019 00:00:00 13,5 9,3 - 5 3 NE 0,0
25.06.2019 23:00:00 14,3 9,9 - 9 5 N 0,0
25.06.2019 22:00:00 14,8 10,1 - 9 5 N 0,0
25.06.2019 21:00:00 15,5 10,2 - 11 6 N 0,0
25.06.2019 20:00:00 15,7 10,4 - 18 10 NNE 0,0
25.06.2019 19:00:00 16,1 10,8 - 18 10 NNE 0,0
25.06.2019 18:00:00 17,4 11,2 - 16 9 N 0,0
25.06.2019 17:00:00 17,8 11,4 - 18 10 NNE 0,0
25.06.2019 16:00:00 18,8 11,9 - 13 7 N 0,0
25.06.2019 15:00:00 18,3 11,5 - 15 8 N 0,0
25.06.2019 14:00:00 19,5 12,5 - 18 10 NNE 0,0
25.06.2019 13:00:00 17,5 11,0 - 16 9 N 0,0
25.06.2019 12:00:00 17,4 11,2 - 16 9 N 0,0
25.06.2019 11:00:00 17,3 11,3 - 16 9 N 0,0
25.06.2019 10:00:00 16,9 11,5 15,0 15 8 N 0,0
25.06.2019 09:00:00 15,9 10,9 - 11 6 N 0,0
25.06.2019 08:00:00 15,4 11,1 - 11 6 N 0,0
25.06.2019 07:00:00 14,6 10,7 - 9 5 N 0,0
25.06.2019 06:00:00 13,4 10,6 - 11 6 NNE 0,0
25.06.2019 05:00:00 13,0 10,5 - 11 6 N 0,0
25.06.2019 04:00:00 13,3 10,6 - 9 5 N 0,0
25.06.2019 03:00:00 13,4 10,7 - 9 5 N 0,0
25.06.2019 02:00:00 13,4 10,7 - 11 6 N 0,0
25.06.2019 01:00:00 13,3 10,9 - 8 4 NNE 0,0
25.06.2019 00:00:00 13,3 10,9 - 9 5 N 0,0
24.06.2019 23:00:00 13,4 11,0 - 9 5 N 0,0
24.06.2019 22:00:00 13,6 11,4 - 9 5 N 0,0
24.06.2019 21:00:00 14,0 11,9 - 9 5 NNE 0,0
24.06.2019 20:00:00 14,2 11,8 - 11 6 N 0,0
24.06.2019 19:00:00 14,3 11,4 - 13 7 N 0,0
24.06.2019 18:00:00 14,5 11,7 - 15 8 N 0,0
24.06.2019 17:00:00 15,2 12,3 - 11 6 N 0,0
24.06.2019 16:00:00 15,6 12,3 - 11 6 N 0,0
24.06.2019 15:00:00 16,6 12,9 - 9 5 N 0,0
24.06.2019 14:00:00 15,7 12,9 - 9 5 N 0,0
24.06.2019 13:00:00 14,2 11,4 - 8 4 N 0,0
24.06.2019 12:00:00 14,2 11,4 - 9 5 ENE 0,0
24.06.2019 11:00:00 13,8 11,0 - 11 6 NNE 0,0
24.06.2019 10:00:00 13,7 10,8 15,5 11 6 N 0,2
24.06.2019 09:00:00 13,7 10,6 - 13 7 NNE 0,0
24.06.2019 08:00:00 13,4 10,7 - 8 4 NNE 0,0
24.06.2019 07:00:00 12,9 10,4 - 5 3 SSE 0,4
24.06.2019 06:00:00 13,8 9,2 - 9 5 NE 0,0
24.06.2019 05:00:00 13,2 8,0 - 11 6 E 0,0
24.06.2019 04:00:00 13,8 7,3 - 15 8 E 0,0
24.06.2019 03:00:00 14,4 5,9 - 18 10 E 0,0
24.06.2019 02:00:00 14,6 5,2 - 11 6 ESE 0,0
24.06.2019 01:00:00 15,2 4,4 - 21 11 E 0,0
24.06.2019 00:00:00 16,1 4,0 - 9 5 NE 0,0
23.06.2019 23:00:00 16,1 6,0 - 13 7 E 0,0
23.06.2019 22:00:00 16,6 7,6 - 8 4 ENE 0,0
23.06.2019 21:00:00 17,9 8,8 - 21 11 E 0,0
23.06.2019 20:00:00 19,1 8,8 - 24 13 E 0,0
23.06.2019 19:00:00 20,3 11,4 - 21 11 E 0,0
23.06.2019 18:00:00 21,7 11,6 - 22 12 E 0,0
23.06.2019 17:00:00 22,4 10,0 - 16 9 ESE 0,0
23.06.2019 16:00:00 23,3 10,5 - 21 11 E 0,0
23.06.2019 15:00:00 22,4 11,8 - 13 7 ESE 0,0
23.06.2019 14:00:00 21,8 12,1 - 21 11 E 0,0
23.06.2019 13:00:00 22,2 12,2 - 22 12 E 0,0
23.06.2019 12:00:00 20,8 12,2 - 18 10 E 0,0
23.06.2019 11:00:00 16,6 10,7 - 11 6 ENE 0,0
23.06.2019 10:00:00 15,6 10,6 14,7 4 2 NE 0,0
23.06.2019 09:00:00 15,0 10,9 - 4 2 E 0,0
23.06.2019 08:00:00 12,8 11,2 - 8 4 ENE 0,0
23.06.2019 07:00:00 11,4 9,8 - 0 0 N 0,0
23.06.2019 06:00:00 10,5 9,1 - 2 1 E 0,0
23.06.2019 05:00:00 10,8 9,0 - 2 1 E 0,0
23.06.2019 04:00:00 10,6 8,8 - 4 2 E 0,0
23.06.2019 03:00:00 11,0 9,2 - 4 2 NE 0,0
23.06.2019 02:00:00 11,4 9,6 - 11 6 E 0,0
23.06.2019 01:00:00 11,3 9,2 - 9 5 ENE 0,0
23.06.2019 00:00:00 11,8 9,4 - 4 2 NE 0,0
22.06.2019 23:00:00 12,9 9,8 - 2 1 SE 0,0
22.06.2019 22:00:00 14,0 8,9 - 2 1 SSE 0,0
22.06.2019 21:00:00 14,8 7,9 - 4 2 ENE 0,0
22.06.2019 20:00:00 16,2 8,4 - 9 5 WSW 0,0
22.06.2019 19:00:00 16,5 8,2 - 9 5 NW 0,0
22.06.2019 18:00:00 18,0 8,2 - 15 8 W 0,0
22.06.2019 17:00:00 19,1 9,6 - 16 9 W 0,0
22.06.2019 16:00:00 17,5 10,2 - 18 10 W 0,0
22.06.2019 15:00:00 16,1 10,5 - 13 7 W 0,0
22.06.2019 14:00:00 15,2 9,9 - 9 5 NNW 0,0
22.06.2019 13:00:00 13,5 9,9 - 11 6 WNW 0,0
22.06.2019 12:00:00 15,3 10,5 - 5 3 S 0,0
22.06.2019 11:00:00 14,0 9,7 - 5 3 S 0,0
22.06.2019 10:00:00 12,2 9,5 14,2 5 3 SSW 0,2
22.06.2019 09:00:00 14,1 8,8 - 9 5 SSE 0,0
22.06.2019 08:00:00 13,5 10,0 - 9 5 NE 0,0
22.06.2019 07:00:00 10,5 8,4 - 8 4 E 0,0
22.06.2019 06:00:00 9,0 7,8 - 4 2 E 0,0
22.06.2019 05:00:00 6,7 5,7 - 2 1 SE 0,0
22.06.2019 04:00:00 7,5 6,2 - 0 0 N 0,0
22.06.2019 03:00:00 8,7 6,8 - 2 1 SW 0,0
22.06.2019 02:00:00 8,4 6,8 - 2 1 S 0,0
22.06.2019 01:00:00 9,2 7,5 - 4 2 NE 0,0
22.06.2019 00:00:00 9,0 7,5 - 4 2 SSW 0,0
21.06.2019 23:00:00 9,6 7,2 - 2 1 SSE 0,0
21.06.2019 22:00:00 11,1 7,5 - 5 3 SSW 0,0
21.06.2019 21:00:00 13,1 6,8 - 4 2 SSW 0,0
21.06.2019 20:00:00 12,9 8,0 - 15 8 SSW 0,0
21.06.2019 19:00:00 15,5 9,0 - 9 5 W 0,0
21.06.2019 18:00:00 15,4 8,6 - 13 7 WSW 0,0
21.06.2019 17:00:00 14,8 7,9 - 13 7 WSW 0,0
21.06.2019 16:00:00 14,8 8,5 - 22 12 W 0,0
21.06.2019 15:00:00 13,5 7,7 - 15 8 W 0,0
21.06.2019 14:00:00 14,8 10,2 - 21 11 W 0,0
21.06.2019 13:00:00 13,7 8,6 - 16 9 WSW 0,0
21.06.2019 12:00:00 14,2 9,9 - 22 12 W 0,0
21.06.2019 11:00:00 12,7 8,0 - 21 11 W 0,0
21.06.2019 10:00:00 13,0 9,2 13,7 18 10 W 0,0
21.06.2019 09:00:00 12,9 9,8 - 22 12 W 0,0
21.06.2019 08:00:00 11,4 8,2 - 16 9 WSW 0,2
21.06.2019 07:00:00 10,4 8,2 - 4 2 SW 0,0
21.06.2019 06:00:00 9,5 7,4 - 9 5 WSW 0,2
21.06.2019 05:00:00 8,9 7,5 - 9 5 SW 0,0
21.06.2019 04:00:00 8,9 7,6 - 11 6 SW 0,2
21.06.2019 03:00:00 8,4 7,4 - 8 4 SSW 0,0
21.06.2019 02:00:00 8,3 7,1 - 8 4 SSW 0,4
21.06.2019 01:00:00 9,0 7,8 - 15 8 WSW 0,2
21.06.2019 00:00:00 8,8 7,6 - 5 3 SW 0,4
20.06.2019 23:00:00 9,6 7,3 - 11 6 WSW 0,4
20.06.2019 22:00:00 10,4 7,0 - 15 8 WSW 0,0
20.06.2019 21:00:00 11,3 7,8 - 11 6 SW 0,0
20.06.2019 20:00:00 11,9 7,7 - 15 8 WSW 0,0
20.06.2019 19:00:00 12,4 9,0 - 18 10 W 0,0

tt = Température de l'air
td = dewpoint
tt -20cm = Température de l'air -20cm
ff = Vitesse du vent
dd = Direction du vent
rr = Quantités de précipitations

stations d'obs. à proximité